createdAt,value
2022-10-13T00:00:05.435Z,77.67
2022-10-13T00:02:31.832Z,78.12
2022-10-13T00:04:58.184Z,77.73
2022-10-13T00:07:24.548Z,77.60
2022-10-13T00:09:50.918Z,78.06
2022-10-13T00:12:18.122Z,77.67
2022-10-13T00:14:44.623Z,78.17
2022-10-13T00:17:10.993Z,77.95
2022-10-13T00:19:37.403Z,78.19
2022-10-13T00:22:03.761Z,78.07
2022-10-13T00:24:30.276Z,77.99
2022-10-13T00:26:56.647Z,78.45
2022-10-13T00:29:23.016Z,78.55
2022-10-13T00:31:49.410Z,78.32
2022-10-13T00:34:15.772Z,78.71
2022-10-13T00:36:42.125Z,79.02
2022-10-13T00:39:08.537Z,78.88
2022-10-13T00:41:34.901Z,78.91
2022-10-13T00:44:06.718Z,78.62
2022-10-13T00:46:37.140Z,78.68
2022-10-13T00:49:08.757Z,78.90
2022-10-13T00:51:40.045Z,78.89
2022-10-13T00:54:07.252Z,78.71
2022-10-13T00:56:34.914Z,78.64
2022-10-13T00:59:01.547Z,78.67
2022-10-13T01:01:27.985Z,78.81
2022-10-13T01:03:54.361Z,79.02
2022-10-13T01:06:23.577Z,78.59
2022-10-13T01:08:50.842Z,78.66
2022-10-13T01:11:39.401Z,78.92
2022-10-13T01:14:35.413Z,79.25
2022-10-13T01:17:26.705Z,79.20
2022-10-13T01:20:00.823Z,79.39
2022-10-13T01:22:36.918Z,79.47
2022-10-13T01:25:11.533Z,79.43
2022-10-13T01:28:05.146Z,79.30
2022-10-13T01:30:45.601Z,79.41
2022-10-13T01:33:24.655Z,79.65
2022-10-13T01:36:16.637Z,79.74
2022-10-13T01:38:47.413Z,79.48
2022-10-13T01:41:18.793Z,79.38
2022-10-13T01:43:51.401Z,79.36
2022-10-13T01:46:22.617Z,79.65
2022-10-13T01:48:52.092Z,79.56
2022-10-13T01:51:19.348Z,79.82
2022-10-13T01:53:47.079Z,79.55
2022-10-13T01:56:13.741Z,79.76
2022-10-13T01:58:40.334Z,79.72
2022-10-13T02:01:15.210Z,79.62
2022-10-13T02:04:00.392Z,80.21
2022-10-13T02:06:35.201Z,81.18
2022-10-13T02:09:26.394Z,80.75
2022-10-13T02:12:02.062Z,80.30
2022-10-13T02:14:30.364Z,80.30
2022-10-13T02:17:00.326Z,80.51
2022-10-13T02:19:27.727Z,80.72
2022-10-13T02:21:54.405Z,80.84
2022-10-13T02:24:20.772Z,80.69
2022-10-13T02:26:47.476Z,80.95
2022-10-13T02:29:15.437Z,81.25
2022-10-13T02:31:42.340Z,81.23
2022-10-13T02:34:08.749Z,80.99
2022-10-13T02:36:37.718Z,81.28
2022-10-13T02:39:05.205Z,81.38
2022-10-13T02:41:31.637Z,81.42
2022-10-13T02:43:58.004Z,81.88
2022-10-13T02:46:24.427Z,81.85
2022-10-13T02:48:50.809Z,81.87
2022-10-13T02:51:17.185Z,82.37
2022-10-13T02:53:43.780Z,82.82
2022-10-13T02:56:10.313Z,82.65
2022-10-13T02:58:36.689Z,82.76
2022-10-13T03:01:07.996Z,82.63
2022-10-13T03:03:34.706Z,82.83
2022-10-13T03:06:01.145Z,82.85
2022-10-13T03:08:27.520Z,83.14
2022-10-13T03:10:53.952Z,83.19
2022-10-13T03:13:21.106Z,82.89
2022-10-13T03:15:47.610Z,83.38
2022-10-13T03:18:14.107Z,83.50
2022-10-13T03:20:40.637Z,83.30
2022-10-13T03:23:07.055Z,83.76
2022-10-13T03:25:34.251Z,83.59
2022-10-13T03:28:00.600Z,83.18
2022-10-13T03:30:27.056Z,83.42
2022-10-13T03:32:53.455Z,83.46
2022-10-13T03:35:19.846Z,83.83
2022-10-13T03:37:46.337Z,83.63
2022-10-13T03:40:12.797Z,83.45
2022-10-13T03:42:39.483Z,83.99
2022-10-13T03:45:06.277Z,83.73
2022-10-13T03:47:35.269Z,83.58
2022-10-13T03:50:01.793Z,83.88
2022-10-13T03:52:28.150Z,83.66
2022-10-13T03:54:54.505Z,83.78
2022-10-13T03:57:20.861Z,83.77
2022-10-13T03:59:47.280Z,83.92
2022-10-13T04:02:13.762Z,83.85
2022-10-13T04:04:40.269Z,84.16
2022-10-13T04:07:08.320Z,84.07
2022-10-13T04:09:34.974Z,83.88
2022-10-13T04:12:01.346Z,83.93
2022-10-13T04:14:27.721Z,84.45
2022-10-13T04:16:54.130Z,83.89
2022-10-13T04:19:20.498Z,84.19
2022-10-13T04:21:46.857Z,84.14
2022-10-13T04:24:13.590Z,84.41
2022-10-13T04:26:40.135Z,84.35
2022-10-13T04:29:08.608Z,84.00
2022-10-13T04:31:35.646Z,84.20
2022-10-13T04:34:02.005Z,84.06
2022-10-13T04:36:28.567Z,84.26
2022-10-13T04:38:55.416Z,84.19
2022-10-13T04:41:23.462Z,84.45
2022-10-13T04:43:50.891Z,84.84
2022-10-13T04:46:19.825Z,84.75
2022-10-13T04:48:46.527Z,84.83
2022-10-13T04:51:15.629Z,84.87
2022-10-13T04:53:42.131Z,84.69
2022-10-13T04:56:15.189Z,84.97
2022-10-13T04:58:42.943Z,84.98
2022-10-13T05:01:17.586Z,85.43
2022-10-13T05:03:46.846Z,85.45
2022-10-13T05:06:15.186Z,85.52
2022-10-13T05:08:41.738Z,85.71
2022-10-13T05:11:08.100Z,85.53
2022-10-13T05:13:34.502Z,86.12
2022-10-13T05:16:00.922Z,85.82
2022-10-13T05:18:27.285Z,85.40
2022-10-13T05:20:53.936Z,85.99
2022-10-13T05:23:20.313Z,86.24
2022-10-13T05:25:46.673Z,85.98
2022-10-13T05:28:13.271Z,86.30
2022-10-13T05:30:39.923Z,86.44
2022-10-13T05:33:06.289Z,86.30
2022-10-13T05:35:32.762Z,87.00
2022-10-13T05:37:59.172Z,86.97
2022-10-13T05:40:25.580Z,86.86
2022-10-13T05:42:52.426Z,86.92
2022-10-13T05:45:19.829Z,87.01
2022-10-13T05:47:46.219Z,86.76
2022-10-13T05:50:12.585Z,87.28
2022-10-13T05:52:39.265Z,87.53
2022-10-13T05:55:08.471Z,87.84
2022-10-13T05:57:37.393Z,87.94
2022-10-13T06:00:17.557Z,88.02
2022-10-13T06:02:55.732Z,88.23
2022-10-13T06:05:24.315Z,88.55
2022-10-13T06:07:50.802Z,89.10
2022-10-13T06:10:17.579Z,89.07
2022-10-13T06:12:44.106Z,89.04
2022-10-13T06:15:10.744Z,89.34
2022-10-13T06:17:38.298Z,89.47
2022-10-13T06:20:06.171Z,89.53
2022-10-13T06:22:36.449Z,89.45
2022-10-13T06:25:04.457Z,89.27
2022-10-13T06:27:31.191Z,89.80
2022-10-13T06:29:57.800Z,89.45
2022-10-13T06:32:24.166Z,89.45
2022-10-13T06:34:50.904Z,89.37
2022-10-13T06:37:17.370Z,89.47
2022-10-13T06:39:43.773Z,89.49
2022-10-13T06:42:10.205Z,89.82
2022-10-13T06:44:36.585Z,89.49
2022-10-13T06:47:04.056Z,90.13
2022-10-13T06:49:30.435Z,90.03
2022-10-13T06:51:56.856Z,90.23
2022-10-13T06:54:23.222Z,90.78
2022-10-13T06:56:49.753Z,90.25
2022-10-13T06:59:16.124Z,90.35
2022-10-13T07:01:42.524Z,90.32
2022-10-13T07:04:09.488Z,90.54
2022-10-13T07:06:35.987Z,90.33
2022-10-13T07:09:06.873Z,90.60
2022-10-13T07:11:33.478Z,90.64
2022-10-13T07:16:31.446Z,90.57
2022-10-13T07:19:05.326Z,90.37
2022-10-13T07:21:31.781Z,90.46
2022-10-13T07:23:58.194Z,90.61
2022-10-13T07:26:24.608Z,90.55
2022-10-13T07:28:51.063Z,89.98
2022-10-13T07:31:19.464Z,90.40
2022-10-13T07:33:48.083Z,90.31
2022-10-13T07:36:14.777Z,90.45
2022-10-13T07:38:41.374Z,90.46
2022-10-13T07:41:10.113Z,90.67
2022-10-13T07:43:36.477Z,90.66
2022-10-13T07:46:06.675Z,91.56
2022-10-13T07:48:33.499Z,91.25
2022-10-13T07:51:03.978Z,91.18
2022-10-13T07:53:30.382Z,91.44
2022-10-13T07:56:00.708Z,91.12
2022-10-13T07:58:27.755Z,91.67
2022-10-13T08:01:01.549Z,91.47
2022-10-13T08:03:28.781Z,91.73
2022-10-13T08:05:55.756Z,91.56
2022-10-13T08:08:22.156Z,91.45
2022-10-13T08:10:48.533Z,91.64
2022-10-13T08:13:14.978Z,91.36
2022-10-13T08:15:42.675Z,91.37
2022-10-13T08:18:10.247Z,91.31
2022-10-13T08:20:43.849Z,91.24
2022-10-13T08:23:11.274Z,91.24
2022-10-13T08:25:41.273Z,91.43
2022-10-13T08:28:17.154Z,91.28
2022-10-13T08:30:43.564Z,91.77
2022-10-13T08:33:10.088Z,91.30
2022-10-13T08:35:36.486Z,91.21
2022-10-13T08:38:02.869Z,90.72
2022-10-13T08:40:29.306Z,90.58
2022-10-13T08:43:00.233Z,90.19
2022-10-13T08:45:40.935Z,90.46
2022-10-13T08:48:33.913Z,90.49
2022-10-13T08:51:03.820Z,90.46
2022-10-13T08:53:33.878Z,90.35
2022-10-13T08:56:15.627Z,90.17
2022-10-13T08:58:42.828Z,90.09
2022-10-13T09:01:09.140Z,90.01
2022-10-13T09:03:55.705Z,89.67
2022-10-13T09:06:28.714Z,89.79
2022-10-13T09:09:06.920Z,89.43
2022-10-13T09:11:38.949Z,89.51
2022-10-13T09:14:08.209Z,89.58
2022-10-13T09:16:43.212Z,89.32
2022-10-13T09:19:23.359Z,89.11
2022-10-13T09:22:42.232Z,89.05
2022-10-13T09:25:11.633Z,89.12
2022-10-13T09:27:52.961Z,89.59
2022-10-13T09:30:38.253Z,89.61
2022-10-13T09:33:04.519Z,89.54
2022-10-13T09:35:34.259Z,89.70
2022-10-13T09:38:04.393Z,90.15
2022-10-13T09:40:32.143Z,89.50
2022-10-13T09:43:00.501Z,89.52
2022-10-13T09:45:27.860Z,89.29
2022-10-13T09:48:04.614Z,89.34
2022-10-13T09:50:31.925Z,89.44
2022-10-13T09:53:34.078Z,89.61
2022-10-13T09:56:19.608Z,89.37
2022-10-13T09:59:04.453Z,89.39
2022-10-13T10:01:35.023Z,89.22
2022-10-13T10:04:11.690Z,88.94
2022-10-13T10:06:38.945Z,88.45
2022-10-13T10:09:14.570Z,88.10
2022-10-13T10:11:43.460Z,88.25
2022-10-13T10:14:17.173Z,88.04
2022-10-13T10:16:47.952Z,87.73
2022-10-13T10:19:24.944Z,87.59
2022-10-13T10:22:33.460Z,87.39
2022-10-13T10:25:29.808Z,87.35
2022-10-13T10:28:17.225Z,87.39
2022-10-13T10:30:48.808Z,87.14
2022-10-13T10:33:22.000Z,86.80
2022-10-13T10:36:16.808Z,86.37
2022-10-13T10:38:48.268Z,86.31
2022-10-13T10:41:26.833Z,86.43
2022-10-13T10:43:57.099Z,85.57
2022-10-13T10:46:25.894Z,85.55
2022-10-13T10:48:55.210Z,85.06
2022-10-13T10:51:28.391Z,85.18
2022-10-13T10:53:57.772Z,84.80
2022-10-13T10:56:40.821Z,83.58
2022-10-13T10:59:13.227Z,83.41
2022-10-13T11:01:47.998Z,83.10
2022-10-13T11:04:39.479Z,82.64
2022-10-13T11:07:43.651Z,82.12
2022-10-13T11:10:10.037Z,82.12
2022-10-13T11:12:53.259Z,81.95
2022-10-13T11:15:25.561Z,82.58
2022-10-13T11:17:52.171Z,81.73
2022-10-13T11:20:21.633Z,81.69
2022-10-13T11:22:59.954Z,80.53
2022-10-13T11:25:39.872Z,80.94
2022-10-13T11:28:21.793Z,80.54
2022-10-13T11:30:55.367Z,81.27
2022-10-13T11:33:39.956Z,81.02
2022-10-13T11:36:28.540Z,81.16
2022-10-13T11:39:06.971Z,81.63
2022-10-13T11:41:52.585Z,80.83
2022-10-13T11:44:30.563Z,81.10
2022-10-13T11:47:15.904Z,80.38
2022-10-13T11:50:12.077Z,80.48
2022-10-13T11:53:07.371Z,80.77
2022-10-13T11:55:51.948Z,80.28
2022-10-13T11:58:30.038Z,80.20
2022-10-13T12:01:11.010Z,78.36
2022-10-13T12:03:45.475Z,79.04
2022-10-13T12:06:34.137Z,78.10
2022-10-13T12:09:03.041Z,77.56
2022-10-13T12:11:32.469Z,78.17
2022-10-13T12:14:00.559Z,77.72
2022-10-13T12:16:28.857Z,76.78
2022-10-13T12:19:07.462Z,76.45
2022-10-13T12:21:34.175Z,77.14
2022-10-13T12:24:09.481Z,77.07
2022-10-13T12:26:35.891Z,77.82
2022-10-13T12:29:03.247Z,77.70
2022-10-13T12:31:46.873Z,76.80
2022-10-13T12:34:35.806Z,76.80
2022-10-13T12:37:11.496Z,77.73
2022-10-13T12:39:38.349Z,77.34
2022-10-13T12:42:07.408Z,76.77
2022-10-13T12:44:34.181Z,77.74
2022-10-13T12:47:03.558Z,77.16
2022-10-13T12:49:32.124Z,77.39
2022-10-13T12:52:23.887Z,77.93
2022-10-13T12:54:52.745Z,78.28
2022-10-13T12:57:22.822Z,78.18
2022-10-13T12:59:49.396Z,78.41
2022-10-13T13:02:28.891Z,78.36
2022-10-13T13:04:56.041Z,78.77
2022-10-13T13:07:28.611Z,78.70
2022-10-13T13:10:08.138Z,79.07
2022-10-13T13:12:36.347Z,79.00
2022-10-13T13:15:30.797Z,78.71
2022-10-13T13:18:35.787Z,79.18
2022-10-13T13:21:04.571Z,79.62
2022-10-13T13:23:34.431Z,79.56
2022-10-13T13:26:15.073Z,78.98
2022-10-13T13:28:49.652Z,78.42
2022-10-13T13:31:35.057Z,78.47
2022-10-13T13:34:03.853Z,77.77
2022-10-13T13:36:31.116Z,77.37
2022-10-13T13:39:03.145Z,76.28
2022-10-13T13:41:31.245Z,76.88
2022-10-13T13:44:03.147Z,75.80
2022-10-13T13:46:32.347Z,75.89
2022-10-13T13:49:03.473Z,75.92
2022-10-13T13:51:30.045Z,76.42
2022-10-13T13:54:04.453Z,76.29
2022-10-13T13:56:30.958Z,76.71
2022-10-13T13:59:01.260Z,76.35
2022-10-13T14:01:32.787Z,76.84
2022-10-13T14:04:01.011Z,77.35
2022-10-13T14:06:29.480Z,77.25
2022-10-13T14:09:03.164Z,77.16
2022-10-13T14:11:54.219Z,77.54
2022-10-13T14:14:23.855Z,77.97
2022-10-13T14:17:19.873Z,77.93
2022-10-13T14:19:50.356Z,78.16
2022-10-13T14:22:16.826Z,78.00
2022-10-13T14:24:51.050Z,77.82
2022-10-13T14:27:24.146Z,78.04
2022-10-13T14:30:09.909Z,78.73
2022-10-13T14:32:39.762Z,78.61
2022-10-13T14:35:06.563Z,78.52
2022-10-13T14:37:40.389Z,79.31
2022-10-13T14:40:12.487Z,80.01
2022-10-13T14:42:39.564Z,80.93
2022-10-13T14:45:06.577Z,81.53
2022-10-13T14:47:33.072Z,82.03
2022-10-13T14:50:01.945Z,82.24
2022-10-13T14:52:28.446Z,82.40
2022-10-13T14:54:56.025Z,83.25
2022-10-13T14:57:23.069Z,83.23
2022-10-13T14:59:49.995Z,83.79
2022-10-13T15:02:16.906Z,83.59
2022-10-13T15:04:45.652Z,84.78
2022-10-13T15:07:12.247Z,85.27
2022-10-13T15:09:52.447Z,85.41
2022-10-13T15:12:22.553Z,85.63
2022-10-13T15:14:51.836Z,85.89
2022-10-13T15:17:18.260Z,86.18
2022-10-13T15:19:44.710Z,86.23
2022-10-13T15:22:15.262Z,85.91
2022-10-13T15:24:42.313Z,86.22
2022-10-13T15:27:09.853Z,86.41
2022-10-13T15:29:36.260Z,86.34
2022-10-13T15:32:11.549Z,86.22
2022-10-13T15:34:39.610Z,86.74
2022-10-13T15:37:06.543Z,87.55
2022-10-13T15:39:32.943Z,87.76
2022-10-13T15:41:59.369Z,87.53
2022-10-13T15:44:26.247Z,87.36
2022-10-13T15:47:07.364Z,87.36
2022-10-13T15:49:39.332Z,87.69
2022-10-13T15:52:05.790Z,87.88
2022-10-13T15:54:32.275Z,88.10
2022-10-13T15:56:58.657Z,88.53
2022-10-13T15:59:25.541Z,88.28
2022-10-13T16:01:51.948Z,88.13
2022-10-13T16:04:18.321Z,88.52
2022-10-13T16:06:44.777Z,88.17
2022-10-13T16:09:11.232Z,88.12
2022-10-13T16:11:37.632Z,88.53
2022-10-13T16:14:08.134Z,88.39
2022-10-13T16:16:34.664Z,88.59
2022-10-13T16:19:01.124Z,88.88
2022-10-13T16:21:27.703Z,89.49
2022-10-13T16:23:54.516Z,89.08
2022-10-13T16:26:21.383Z,89.00
2022-10-13T16:28:48.011Z,89.27
2022-10-13T16:31:16.502Z,89.26
2022-10-13T16:33:44.476Z,89.63
2022-10-13T16:36:13.253Z,89.46
2022-10-13T16:38:39.609Z,89.68
2022-10-13T16:41:12.070Z,89.40
2022-10-13T16:43:38.505Z,89.62
2022-10-13T16:46:06.877Z,89.72
2022-10-13T16:48:33.274Z,89.90
2022-10-13T16:51:09.348Z,89.46
2022-10-13T16:53:35.955Z,89.91
2022-10-13T16:56:04.733Z,89.62
2022-10-13T16:58:31.288Z,89.70
2022-10-13T17:01:08.904Z,89.49
2022-10-13T17:03:39.188Z,89.30
2022-10-13T17:06:06.882Z,89.48
2022-10-13T17:08:33.523Z,89.40
2022-10-13T17:11:00.445Z,89.39
2022-10-13T17:13:32.294Z,89.52
2022-10-13T17:15:59.993Z,89.32
2022-10-13T17:18:27.815Z,89.17
2022-10-13T17:20:56.184Z,89.12
2022-10-13T17:23:23.914Z,89.37
2022-10-13T17:25:52.449Z,89.35
2022-10-13T17:28:19.580Z,89.74
2022-10-13T17:30:56.528Z,89.49
2022-10-13T17:33:23.021Z,89.45
2022-10-13T17:35:49.531Z,89.38
2022-10-13T17:38:15.929Z,89.31
2022-10-13T17:40:42.459Z,89.43
2022-10-13T17:43:08.943Z,89.56
2022-10-13T17:45:35.333Z,89.00
2022-10-13T17:48:01.799Z,88.87
2022-10-13T17:50:29.209Z,88.75
2022-10-13T17:52:55.593Z,89.18
2022-10-13T17:55:21.989Z,88.97
2022-10-13T17:57:48.732Z,88.77
2022-10-13T18:00:15.935Z,88.80
2022-10-13T18:02:42.384Z,89.21
2022-10-13T18:05:09.015Z,88.73
2022-10-13T18:07:35.540Z,88.75
2022-10-13T18:10:05.416Z,89.23
2022-10-13T18:12:32.499Z,88.96
2022-10-13T18:14:58.999Z,89.42
2022-10-13T18:17:25.474Z,89.24
2022-10-13T18:19:53.156Z,89.27
2022-10-13T18:22:19.647Z,89.19
2022-10-13T18:24:46.295Z,90.03
2022-10-13T18:27:15.377Z,90.16
2022-10-13T18:29:42.604Z,90.16
2022-10-13T18:32:09.137Z,90.08
2022-10-13T18:34:36.143Z,90.14
2022-10-13T18:37:05.464Z,90.18
2022-10-13T18:39:34.286Z,89.47
2022-10-13T18:42:00.796Z,89.33
2022-10-13T18:44:27.462Z,89.68
2022-10-13T18:46:56.337Z,90.55
2022-10-13T18:49:30.580Z,90.13
2022-10-13T18:51:58.539Z,89.84
2022-10-13T18:54:25.420Z,90.03
2022-10-13T18:56:52.764Z,90.10
2022-10-13T18:59:19.562Z,90.13
2022-10-13T19:01:46.024Z,90.15
2022-10-13T19:04:14.659Z,90.54
2022-10-13T19:06:41.224Z,90.75
2022-10-13T19:09:10.270Z,90.86
2022-10-13T19:11:37.219Z,90.94
2022-10-13T19:14:05.739Z,91.17
2022-10-13T19:16:35.752Z,90.74
2022-10-13T19:19:02.226Z,90.78
2022-10-13T19:21:28.624Z,90.99
2022-10-13T19:23:58.593Z,90.88
2022-10-13T19:26:29.702Z,91.06
2022-10-13T19:29:01.773Z,90.97
2022-10-13T19:31:31.000Z,91.10
2022-10-13T19:33:58.186Z,90.78
2022-10-13T19:36:27.517Z,90.79
2022-10-13T19:38:54.559Z,91.48
2022-10-13T19:41:21.087Z,91.41
2022-10-13T19:43:47.541Z,91.44
2022-10-13T19:46:14.014Z,91.57
2022-10-13T19:48:40.454Z,91.30
2022-10-13T19:51:08.210Z,91.44
2022-10-13T19:53:35.681Z,91.81
2022-10-13T19:56:02.199Z,91.95
2022-10-13T19:58:28.972Z,92.03
2022-10-13T20:00:55.463Z,92.09
2022-10-13T20:03:21.852Z,92.32
2022-10-13T20:05:48.352Z,92.28
2022-10-13T20:08:14.974Z,92.49
2022-10-13T20:10:42.789Z,92.99
2022-10-13T20:13:10.247Z,93.21
2022-10-13T20:15:41.741Z,93.53
2022-10-13T20:18:09.472Z,93.64
2022-10-13T20:20:41.567Z,94.04
2022-10-13T20:23:08.887Z,94.07
2022-10-13T20:25:37.342Z,93.74
2022-10-13T20:28:04.231Z,94.28
2022-10-13T20:30:30.687Z,94.27
2022-10-13T20:32:57.482Z,94.24
2022-10-13T20:35:23.909Z,93.93
2022-10-13T20:37:50.268Z,93.36
2022-10-13T20:40:16.647Z,93.57
2022-10-13T20:42:43.018Z,93.78
2022-10-13T20:45:09.996Z,93.80
2022-10-13T20:47:36.363Z,93.32
2022-10-13T20:50:04.760Z,93.03
2022-10-13T20:52:31.118Z,93.18
2022-10-13T20:54:57.483Z,92.83
2022-10-13T20:57:24.643Z,93.00
2022-10-13T20:59:51.135Z,92.96
2022-10-13T21:02:17.681Z,93.59
2022-10-13T21:04:44.067Z,93.40
2022-10-13T21:07:10.529Z,93.30
2022-10-13T21:09:36.992Z,93.34
2022-10-13T21:12:03.683Z,93.31
2022-10-13T21:14:30.198Z,93.58
2022-10-13T21:16:56.606Z,93.89
2022-10-13T21:19:23.039Z,94.10
2022-10-13T21:21:49.457Z,93.98
2022-10-13T21:24:15.815Z,93.86
2022-10-13T21:26:42.181Z,93.48
2022-10-13T21:29:08.543Z,93.47
2022-10-13T21:31:35.380Z,93.24
2022-10-13T21:34:01.839Z,93.17
2022-10-13T21:36:30.187Z,92.84
2022-10-13T21:39:00.188Z,92.72
2022-10-13T21:41:27.159Z,92.80
2022-10-13T21:43:53.814Z,92.88
2022-10-13T21:46:28.196Z,92.62
2022-10-13T21:48:56.723Z,92.39
2022-10-13T21:51:34.875Z,92.17
2022-10-13T21:54:04.078Z,92.19
2022-10-13T21:56:32.369Z,91.80
2022-10-13T21:58:59.220Z,91.92
2022-10-13T22:01:25.923Z,92.36
2022-10-13T22:03:54.998Z,91.89
2022-10-13T22:06:21.575Z,92.01
2022-10-13T22:08:50.083Z,91.69
2022-10-13T22:11:17.943Z,91.79
2022-10-13T22:13:44.421Z,91.64
2022-10-13T22:16:22.296Z,91.43
2022-10-13T22:18:51.483Z,91.47
2022-10-13T22:21:20.538Z,91.79
2022-10-13T22:23:47.547Z,91.38
2022-10-13T22:26:15.252Z,91.61
2022-10-13T22:28:42.557Z,91.36
2022-10-13T22:31:11.612Z,91.18
2022-10-13T22:33:41.095Z,91.00
2022-10-13T22:36:08.825Z,91.26
2022-10-13T22:38:35.484Z,91.01
2022-10-13T22:41:05.965Z,91.06
2022-10-13T22:43:32.861Z,90.93
2022-10-13T22:45:59.445Z,91.05
2022-10-13T22:48:25.881Z,90.48
2022-10-13T22:50:52.252Z,90.69
2022-10-13T22:53:18.645Z,90.67
2022-10-13T22:55:45.166Z,90.72
2022-10-13T22:58:11.749Z,91.14
2022-10-13T23:00:38.801Z,91.27
2022-10-13T23:03:11.057Z,91.22
2022-10-13T23:05:42.487Z,91.24
2022-10-13T23:08:09.624Z,91.24
2022-10-13T23:10:36.753Z,91.11
2022-10-13T23:13:04.217Z,91.23
2022-10-13T23:15:30.646Z,91.08
2022-10-13T23:17:57.031Z,90.77
2022-10-13T23:20:23.629Z,90.79
2022-10-13T23:22:50.033Z,90.65
2022-10-13T23:25:16.409Z,90.88
2022-10-13T23:27:42.775Z,91.03
2022-10-13T23:30:09.676Z,90.76
2022-10-13T23:32:37.087Z,90.92
2022-10-13T23:35:03.528Z,90.87
2022-10-13T23:37:29.932Z,90.94
2022-10-13T23:39:56.295Z,91.10
2022-10-13T23:42:22.670Z,91.05
2022-10-13T23:44:49.030Z,90.66
2022-10-13T23:47:15.410Z,90.76
2022-10-13T23:49:41.858Z,90.61
2022-10-13T23:52:10.893Z,90.26
2022-10-13T23:54:37.644Z,89.85
2022-10-13T23:57:04.101Z,90.04
2022-10-13T23:59:30.460Z,90.02
